sensor_id;sensor_type;location;lat;lon;timestamp;pressure;altitude;pressure_sealevel;temperature;humidity
12475;BME280;6302;42.624;23.334;2023-04-29T00:00:13;93311.19;;;7.58;82.93
12475;BME280;6302;42.624;23.334;2023-04-29T00:02:40;93300.22;;;7.49;84.15
12475;BME280;6302;42.624;23.334;2023-04-29T00:05:07;93308.53;;;7.51;85.14
12475;BME280;6302;42.624;23.334;2023-04-29T00:07:34;93310.03;;;7.45;86.08
12475;BME280;6302;42.624;23.334;2023-04-29T00:10:04;93310.38;;;7.40;85.30
12475;BME280;6302;42.624;23.334;2023-04-29T00:12:31;93312.25;;;7.36;86.58
12475;BME280;6302;42.624;23.334;2023-04-29T00:14:58;93312.97;;;7.33;87.59
12475;BME280;6302;42.624;23.334;2023-04-29T00:17:27;93305.44;;;7.28;88.73
12475;BME280;6302;42.624;23.334;2023-04-29T00:19:54;93315.94;;;7.20;89.07
12475;BME280;6302;42.624;23.334;2023-04-29T00:22:20;93318.16;;;7.15;89.16
12475;BME280;6302;42.624;23.334;2023-04-29T00:24:48;93313.63;;;7.08;89.98
12475;BME280;6302;42.624;23.334;2023-04-29T00:27:16;93317.00;;;7.05;89.99
12475;BME280;6302;42.624;23.334;2023-04-29T00:29:43;93325.25;;;7.00;90.03
12475;BME280;6302;42.624;23.334;2023-04-29T00:32:10;93320.69;;;6.97;90.51
12475;BME280;6302;42.624;23.334;2023-04-29T00:34:37;93327.84;;;6.93;91.42
12475;BME280;6302;42.624;23.334;2023-04-29T00:37:04;93330.09;;;6.95;92.02
12475;BME280;6302;42.624;23.334;2023-04-29T00:39:31;93327.06;;;6.93;93.12
12475;BME280;6302;42.624;23.334;2023-04-29T00:41:58;93320.28;;;6.88;94.09
12475;BME280;6302;42.624;23.334;2023-04-29T00:44:26;93316.84;;;6.84;93.93
12475;BME280;6302;42.624;23.334;2023-04-29T00:46:53;93320.63;;;6.83;94.91
12475;BME280;6302;42.624;23.334;2023-04-29T00:49:20;93312.72;;;6.83;94.69
12475;BME280;6302;42.624;23.334;2023-04-29T00:51:47;93307.41;;;6.76;94.15
12475;BME280;6302;42.624;23.334;2023-04-29T00:54:15;93312.69;;;6.76;94.57
12475;BME280;6302;42.624;23.334;2023-04-29T00:56:44;93297.59;;;6.73;94.82
12475;BME280;6302;42.624;23.334;2023-04-29T00:59:12;93301.34;;;6.72;95.19
12475;BME280;6302;42.624;23.334;2023-04-29T01:01:41;93293.78;;;6.67;94.67
12475;BME280;6302;42.624;23.334;2023-04-29T01:04:09;93286.22;;;6.62;95.44
12475;BME280;6302;42.624;23.334;2023-04-29T01:06:44;93286.97;;;6.59;95.80
12475;BME280;6302;42.624;23.334;2023-04-29T01:09:26;93284.69;;;6.57;95.95
12475;BME280;6302;42.624;23.334;2023-04-29T01:12:05;93285.06;;;6.56;96.62
12475;BME280;6302;42.624;23.334;2023-04-29T01:14:34;93277.88;;;6.49;96.60
12475;BME280;6302;42.624;23.334;2023-04-29T01:17:05;93282.03;;;6.50;96.86
12475;BME280;6302;42.624;23.334;2023-04-29T01:19:40;93272.97;;;6.48;96.16
12475;BME280;6302;42.624;23.334;2023-04-29T01:22:09;93273.72;;;6.45;96.65
12475;BME280;6302;42.624;23.334;2023-04-29T01:24:38;93260.50;;;6.38;96.21
12475;BME280;6302;42.624;23.334;2023-04-29T01:27:15;93264.28;;;6.40;96.03
12475;BME280;6302;42.624;23.334;2023-04-29T01:29:51;93273.28;;;6.36;95.43
12475;BME280;6302;42.624;23.334;2023-04-29T01:32:27;93270.25;;;6.37;95.32
12475;BME280;6302;42.624;23.334;2023-04-29T01:35:00;93279.66;;;6.35;95.74
12475;BME280;6302;42.624;23.334;2023-04-29T01:37:35;93278.50;;;6.32;95.74
12475;BME280;6302;42.624;23.334;2023-04-29T01:40:11;93275.47;;;6.30;95.25
12475;BME280;6302;42.624;23.334;2023-04-29T01:42:44;93272.84;;;6.30;95.21
12475;BME280;6302;42.624;23.334;2023-04-29T01:45:14;93264.19;;;6.26;95.19
12475;BME280;6302;42.624;23.334;2023-04-29T01:47:42;93268.72;;;6.33;95.20
12475;BME280;6302;42.624;23.334;2023-04-29T01:50:09;93273.22;;;6.29;95.12
12475;BME280;6302;42.624;23.334;2023-04-29T01:52:36;93270.22;;;6.27;94.94
12475;BME280;6302;42.624;23.334;2023-04-29T01:55:06;93266.78;;;6.23;94.82
12475;BME280;6302;42.624;23.334;2023-04-29T01:57:33;93267.91;;;6.22;94.99
12475;BME280;6302;42.624;23.334;2023-04-29T02:00:00;93265.28;;;6.22;95.25
12475;BME280;6302;42.624;23.334;2023-04-29T02:02:27;93263.38;;;6.19;95.25
12475;BME280;6302;42.624;23.334;2023-04-29T02:04:53;93261.09;;;6.17;96.03
12475;BME280;6302;42.624;23.334;2023-04-29T02:07:20;93266.72;;;6.16;97.14
12475;BME280;6302;42.624;23.334;2023-04-29T02:09:47;93273.09;;;6.15;98.13
12475;BME280;6302;42.624;23.334;2023-04-29T02:12:16;93267.44;;;6.13;98.59
12475;BME280;6302;42.624;23.334;2023-04-29T02:14:42;93276.84;;;6.14;99.12
12475;BME280;6302;42.624;23.334;2023-04-29T02:17:11;93269.34;;;6.12;98.42
12475;BME280;6302;42.624;23.334;2023-04-29T02:19:38;93272.72;;;6.13;98.81
12475;BME280;6302;42.624;23.334;2023-04-29T02:22:05;93270.84;;;6.13;98.60
12475;BME280;6302;42.624;23.334;2023-04-29T02:24:32;93269.69;;;6.11;98.35
12475;BME280;6302;42.624;23.334;2023-04-29T02:26:58;93270.81;;;6.10;98.92
12475;BME280;6302;42.624;23.334;2023-04-29T02:29:27;93270.38;;;6.04;99.08
12475;BME280;6302;42.624;23.334;2023-04-29T02:31:55;93273.75;;;6.01;100.00
12475;BME280;6302;42.624;23.334;2023-04-29T02:34:22;93274.06;;;5.96;100.00
12475;BME280;6302;42.624;23.334;2023-04-29T02:36:49;93271.41;;;5.93;100.00
12475;BME280;6302;42.624;23.334;2023-04-29T02:39:16;93268.00;;;5.88;100.00
12475;BME280;6302;42.624;23.334;2023-04-29T02:41:45;93264.59;;;5.84;100.00
12475;BME280;6302;42.624;23.334;2023-04-29T02:44:11;93265.34;;;5.85;100.00
12475;BME280;6302;42.624;23.334;2023-04-29T02:46:39;93269.00;;;5.80;100.00
12475;BME280;6302;42.624;23.334;2023-04-29T02:49:10;93262.94;;;5.73;100.00
12475;BME280;6302;42.624;23.334;2023-04-29T02:51:37;93268.16;;;5.69;100.00
12475;BME280;6302;42.624;23.334;2023-04-29T02:54:04;93272.28;;;5.67;100.00
12475;BME280;6302;42.624;23.334;2023-04-29T02:56:31;93280.84;;;5.60;100.00
12475;BME280;6302;42.624;23.334;2023-04-29T02:58:57;93275.91;;;5.55;100.00
12475;BME280;6302;42.624;23.334;2023-04-29T03:01:24;93280.03;;;5.53;100.00
12475;BME280;6302;42.624;23.334;2023-04-29T03:03:52;93297.25;;;5.50;100.00
12475;BME280;6302;42.624;23.334;2023-04-29T03:06:19;93294.25;;;5.52;100.00
12475;BME280;6302;42.624;23.334;2023-04-29T03:08:46;93285.22;;;5.49;100.00
12475;BME280;6302;42.624;23.334;2023-04-29T03:11:13;93289.69;;;5.45;100.00
12475;BME280;6302;42.624;23.334;2023-04-29T03:13:40;93288.88;;;5.41;100.00
12475;BME280;6302;42.624;23.334;2023-04-29T03:16:07;93284.75;;;5.40;100.00
12475;BME280;6302;42.624;23.334;2023-04-29T03:18:34;93291.13;;;5.39;100.00
12475;BME280;6302;42.624;23.334;2023-04-29T03:21:02;93289.97;;;5.37;100.00
12475;BME280;6302;42.624;23.334;2023-04-29T03:23:29;93291.84;;;5.36;100.00
12475;BME280;6302;42.624;23.334;2023-04-29T03:25:56;93286.19;;;5.34;100.00
12475;BME280;6302;42.624;23.334;2023-04-29T03:28:23;93295.19;;;5.33;100.00
12475;BME280;6302;42.624;23.334;2023-04-29T03:30:50;93296.66;;;5.31;100.00
12475;BME280;6302;42.624;23.334;2023-04-29T03:33:16;93310.22;;;5.36;100.00
12475;BME280;6302;42.624;23.334;2023-04-29T03:35:44;93312.19;;;5.43;100.00
12475;BME280;6302;42.624;23.334;2023-04-29T03:38:12;93319.72;;;5.44;100.00
12475;BME280;6302;42.624;23.334;2023-04-29T03:40:39;93316.38;;;5.47;100.00
12475;BME280;6302;42.624;23.334;2023-04-29T03:43:05;93325.41;;;5.50;100.00
12475;BME280;6302;42.624;23.334;2023-04-29T03:45:33;93325.75;;;5.48;100.00
12475;BME280;6302;42.624;23.334;2023-04-29T03:48:00;93324.25;;;5.47;100.00
12475;BME280;6302;42.624;23.334;2023-04-29T03:50:27;93325.03;;;5.51;100.00
12475;BME280;6302;42.624;23.334;2023-04-29T03:52:54;93308.44;;;5.44;100.00
12475;BME280;6302;42.624;23.334;2023-04-29T03:55:23;93320.91;;;5.50;100.00
12475;BME280;6302;42.624;23.334;2023-04-29T03:57:50;93309.66;;;5.50;100.00
12475;BME280;6302;42.624;23.334;2023-04-29T04:00:17;93311.56;;;5.53;100.00
12475;BME280;6302;42.624;23.334;2023-04-29T04:02:44;93311.63;;;5.60;100.00
12475;BME280;6302;42.624;23.334;2023-04-29T04:05:11;93315.03;;;5.64;100.00
12475;BME280;6302;42.624;23.334;2023-04-29T04:07:38;93301.94;;;5.67;100.00
12475;BME280;6302;42.624;23.334;2023-04-29T04:10:05;93304.66;;;5.74;100.00
12475;BME280;6302;42.624;23.334;2023-04-29T04:12:33;93312.22;;;5.79;100.00
12475;BME280;6302;42.624;23.334;2023-04-29T04:15:00;93314.56;;;5.88;100.00
12475;BME280;6302;42.624;23.334;2023-04-29T04:17:31;93321.38;;;5.93;100.00
12475;BME280;6302;42.624;23.334;2023-04-29T04:19:58;93316.91;;;5.97;100.00
12475;BME280;6302;42.624;23.334;2023-04-29T04:22:25;93315.13;;;6.04;100.00
12475;BME280;6302;42.624;23.334;2023-04-29T04:24:53;93314.44;;;6.14;100.00
12475;BME280;6302;42.624;23.334;2023-04-29T04:27:21;93315.19;;;6.15;100.00
12475;BME280;6302;42.624;23.334;2023-04-29T04:29:52;93323.50;;;6.20;100.00
12475;BME280;6302;42.624;23.334;2023-04-29T04:32:19;93316.09;;;6.29;100.00
12475;BME280;6302;42.624;23.334;2023-04-29T04:34:46;93317.69;;;6.41;100.00
12475;BME280;6302;42.624;23.334;2023-04-29T04:37:13;93313.25;;;6.52;100.00
12475;BME280;6302;42.624;23.334;2023-04-29T04:39:40;93320.13;;;6.64;100.00
12475;BME280;6302;42.624;23.334;2023-04-29T04:42:07;93313.41;;;6.73;100.00
12475;BME280;6302;42.624;23.334;2023-04-29T04:44:34;93316.84;;;6.81;100.00
12475;BME280;6302;42.624;23.334;2023-04-29T04:47:03;93316.88;;;6.88;100.00
12475;BME280;6302;42.624;23.334;2023-04-29T04:49:30;93325.56;;;6.92;100.00
12475;BME280;6302;42.624;23.334;2023-04-29T04:51:57;93320.66;;;6.90;100.00
12475;BME280;6302;42.624;23.334;2023-04-29T04:54:24;93329.69;;;6.89;100.00
12475;BME280;6302;42.624;23.334;2023-04-29T04:56:51;93337.56;;;6.89;100.00
12475;BME280;6302;42.624;23.334;2023-04-29T04:59:17;93326.66;;;6.87;100.00
12475;BME280;6302;42.624;23.334;2023-04-29T05:01:45;93336.16;;;7.02;100.00
12475;BME280;6302;42.624;23.334;2023-04-29T05:04:13;93324.88;;;7.05;100.00
12475;BME280;6302;42.624;23.334;2023-04-29T05:06:41;93312.50;;;7.13;100.00
12475;BME280;6302;42.624;23.334;2023-04-29T05:09:07;93309.19;;;7.30;100.00
12475;BME280;6302;42.624;23.334;2023-04-29T05:11:35;93305.88;;;7.51;100.00
12475;BME280;6302;42.624;23.334;2023-04-29T05:14:02;93298.81;;;7.72;100.00
12475;BME280;6302;42.624;23.334;2023-04-29T05:16:29;93296.94;;;7.80;100.00
12475;BME280;6302;42.624;23.334;2023-04-29T05:18:56;93301.09;;;7.81;100.00
12475;BME280;6302;42.624;23.334;2023-04-29T05:21:24;93295.81;;;7.84;99.49
12475;BME280;6302;42.624;23.334;2023-04-29T05:23:51;93298.81;;;7.83;99.44
12475;BME280;6302;42.624;23.334;2023-04-29T05:26:17;93292.78;;;7.79;100.00
12475;BME280;6302;42.624;23.334;2023-04-29T05:28:44;93289.03;;;7.83;100.00
12475;BME280;6302;42.624;23.334;2023-04-29T05:31:11;93283.78;;;7.94;100.00
12475;BME280;6302;42.624;23.334;2023-04-29T05:33:38;93291.31;;;7.99;100.00
12475;BME280;6302;42.624;23.334;2023-04-29T05:36:05;93290.97;;;8.11;99.69
12475;BME280;6302;42.624;23.334;2023-04-29T05:38:33;93288.38;;;8.29;99.48
12475;BME280;6302;42.624;23.334;2023-04-29T05:41:00;93281.56;;;8.28;99.91
12475;BME280;6302;42.624;23.334;2023-04-29T05:43:28;93290.63;;;8.37;100.00
12475;BME280;6302;42.624;23.334;2023-04-29T05:45:55;93289.88;;;8.44;99.63
12475;BME280;6302;42.624;23.334;2023-04-29T05:48:21;93280.06;;;8.52;99.03
12475;BME280;6302;42.624;23.334;2023-04-29T05:50:49;93274.75;;;8.62;99.91
12475;BME280;6302;42.624;23.334;2023-04-29T05:53:15;93285.31;;;8.73;97.58
12475;BME280;6302;42.624;23.334;2023-04-29T05:55:44;93294.00;;;8.87;95.80
12475;BME280;6302;42.624;23.334;2023-04-29T05:58:11;93296.63;;;8.87;95.00
12475;BME280;6302;42.624;23.334;2023-04-29T06:00:39;93303.78;;;8.97;95.97
12475;BME280;6302;42.624;23.334;2023-04-29T06:03:08;93308.69;;;8.99;95.31
12475;BME280;6302;42.624;23.334;2023-04-29T06:05:35;93312.84;;;9.03;94.40
12475;BME280;6302;42.624;23.334;2023-04-29T06:08:03;93306.78;;;9.06;94.65
12475;BME280;6302;42.624;23.334;2023-04-29T06:10:30;93307.50;;;9.21;91.71
12475;BME280;6302;42.624;23.334;2023-04-29T06:12:59;93301.47;;;9.28;92.88
12475;BME280;6302;42.624;23.334;2023-04-29T06:15:26;93308.63;;;9.27;90.48
12475;BME280;6302;42.624;23.334;2023-04-29T06:17:53;93296.91;;;9.35;90.80
12475;BME280;6302;42.624;23.334;2023-04-29T06:20:20;93298.78;;;9.35;90.58
12475;BME280;6302;42.624;23.334;2023-04-29T06:22:47;93294.22;;;9.42;90.00
12475;BME280;6302;42.624;23.334;2023-04-29T06:25:14;93296.84;;;9.49;87.98
12475;BME280;6302;42.624;23.334;2023-04-29T06:27:41;93298.69;;;9.56;86.97
12475;BME280;6302;42.624;23.334;2023-04-29T06:30:10;93298.63;;;9.73;84.63
12475;BME280;6302;42.624;23.334;2023-04-29T06:32:37;93306.63;;;9.56;83.74
12475;BME280;6302;42.624;23.334;2023-04-29T06:35:05;93309.56;;;9.82;81.63
12475;BME280;6302;42.624;23.334;2023-04-29T06:37:32;93307.59;;;9.97;82.28
12475;BME280;6302;42.624;23.334;2023-04-29T06:39:59;93291.72;;;9.94;79.91
12475;BME280;6302;42.624;23.334;2023-04-29T06:42:26;93307.47;;;10.22;79.58
12475;BME280;6302;42.624;23.334;2023-04-29T06:44:52;93312.72;;;10.29;75.84
12475;BME280;6302;42.624;23.334;2023-04-29T06:47:21;93314.16;;;10.37;76.78
12475;BME280;6302;42.624;23.334;2023-04-29T06:49:48;93306.06;;;10.55;74.79
12475;BME280;6302;42.624;23.334;2023-04-29T06:52:15;93303.88;;;10.46;73.43
12475;BME280;6302;42.624;23.334;2023-04-29T06:54:42;93306.03;;;10.62;75.91
12475;BME280;6302;42.624;23.334;2023-04-29T06:57:09;93303.28;;;10.72;74.60
12475;BME280;6302;42.624;23.334;2023-04-29T06:59:36;93299.38;;;10.87;77.04
12475;BME280;6302;42.624;23.334;2023-04-29T07:02:03;93304.53;;;11.01;74.64
12475;BME280;6302;42.624;23.334;2023-04-29T07:04:31;93297.63;;;11.11;75.76
12475;BME280;6302;42.624;23.334;2023-04-29T07:06:58;93307.00;;;11.23;72.98
12475;BME280;6302;42.624;23.334;2023-04-29T07:09:24;93295.09;;;11.38;74.81
12475;BME280;6302;42.624;23.334;2023-04-29T07:11:52;93288.00;;;11.58;74.38
12475;BME280;6302;42.624;23.334;2023-04-29T07:14:22;93288.91;;;11.82;69.50
12475;BME280;6302;42.624;23.334;2023-04-29T07:16:52;93290.09;;;11.77;67.30
12475;BME280;6302;42.624;23.334;2023-04-29T07:19:19;93285.59;;;11.74;69.10
12475;BME280;6302;42.624;23.334;2023-04-29T07:21:48;93284.72;;;11.81;68.35
12475;BME280;6302;42.624;23.334;2023-04-29T07:24:14;93289.91;;;11.91;68.82
12475;BME280;6302;42.624;23.334;2023-04-29T07:26:42;93288.22;;;12.04;66.12
12475;BME280;6302;42.624;23.334;2023-04-29T07:29:09;93284.81;;;12.04;66.20
12475;BME280;6302;42.624;23.334;2023-04-29T07:31:36;93294.84;;;12.19;66.71
12475;BME280;6302;42.624;23.334;2023-04-29T07:34:03;93290.88;;;12.31;65.41
12475;BME280;6302;42.624;23.334;2023-04-29T07:36:30;93292.09;;;12.50;64.80
12475;BME280;6302;42.624;23.334;2023-04-29T07:38:58;93295.13;;;12.52;62.50
12475;BME280;6302;42.624;23.334;2023-04-29T07:41:25;93291.41;;;12.46;62.99
12475;BME280;6302;42.624;23.334;2023-04-29T07:43:52;93294.72;;;12.53;60.95
12475;BME280;6302;42.624;23.334;2023-04-29T07:46:19;93295.59;;;12.70;59.81
12475;BME280;6302;42.624;23.334;2023-04-29T07:48:46;93290.97;;;12.97;59.98
12475;BME280;6302;42.624;23.334;2023-04-29T07:51:13;93294.16;;;13.12;59.95
12475;BME280;6302;42.624;23.334;2023-04-29T07:53:40;93286.94;;;13.12;59.03
12475;BME280;6302;42.624;23.334;2023-04-29T07:56:09;93287.75;;;13.29;57.17
12475;BME280;6302;42.624;23.334;2023-04-29T07:58:36;93282.19;;;13.23;58.35
12475;BME280;6302;42.624;23.334;2023-04-29T08:01:06;93282.72;;;13.34;56.54
12475;BME280;6302;42.624;23.334;2023-04-29T08:03:34;93278.34;;;13.44;57.15
12475;BME280;6302;42.624;23.334;2023-04-29T08:06:02;93274.34;;;13.75;58.35
12475;BME280;6302;42.624;23.334;2023-04-29T08:08:29;93275.72;;;13.99;56.94
12475;BME280;6302;42.624;23.334;2023-04-29T08:10:56;93276.25;;;14.10;58.25
12475;BME280;6302;42.624;23.334;2023-04-29T08:13:24;93275.72;;;13.99;59.31
12475;BME280;6302;42.624;23.334;2023-04-29T08:15:51;93276.09;;;13.82;57.47
12475;BME280;6302;42.624;23.334;2023-04-29T08:18:18;93277.88;;;13.68;60.45
12475;BME280;6302;42.624;23.334;2023-04-29T08:20:46;93274.44;;;13.88;57.33
12475;BME280;6302;42.624;23.334;2023-04-29T08:23:13;93281.41;;;13.82;54.54
12475;BME280;6302;42.624;23.334;2023-04-29T08:25:40;93264.97;;;13.67;54.78
12475;BME280;6302;42.624;23.334;2023-04-29T08:28:08;93271.44;;;13.86;53.93
12475;BME280;6302;42.624;23.334;2023-04-29T08:30:38;93269.81;;;13.92;54.22
12475;BME280;6302;42.624;23.334;2023-04-29T08:33:06;93265.69;;;14.07;54.93
12475;BME280;6302;42.624;23.334;2023-04-29T08:35:33;93263.22;;;14.32;54.68
12475;BME280;6302;42.624;23.334;2023-04-29T08:38:02;93262.91;;;14.62;51.74
12475;BME280;6302;42.624;23.334;2023-04-29T08:40:30;93265.75;;;14.71;52.91
12475;BME280;6302;42.624;23.334;2023-04-29T08:42:57;93269.56;;;14.70;51.03
12475;BME280;6302;42.624;23.334;2023-04-29T08:45:26;93257.22;;;14.76;49.73
12475;BME280;6302;42.624;23.334;2023-04-29T08:47:56;93259.22;;;14.88;49.96
12475;BME280;6302;42.624;23.334;2023-04-29T08:50:23;93260.97;;;14.79;50.60
12475;BME280;6302;42.624;23.334;2023-04-29T08:52:50;93251.38;;;14.81;51.91
12475;BME280;6302;42.624;23.334;2023-04-29T08:55:17;93243.22;;;14.88;50.65
12475;BME280;6302;42.624;23.334;2023-04-29T08:57:45;93249.31;;;15.18;50.35
12475;BME280;6302;42.624;23.334;2023-04-29T09:00:14;93239.50;;;15.15;48.96
12475;BME280;6302;42.624;23.334;2023-04-29T09:02:47;93235.97;;;15.18;47.07
12475;BME280;6302;42.624;23.334;2023-04-29T09:05:16;93236.22;;;15.23;47.08
12475;BME280;6302;42.624;23.334;2023-04-29T09:07:43;93229.50;;;15.31;45.44
12475;BME280;6302;42.624;23.334;2023-04-29T09:10:11;93232.63;;;15.14;44.78
12475;BME280;6302;42.624;23.334;2023-04-29T09:12:39;93234.06;;;15.18;44.38
12475;BME280;6302;42.624;23.334;2023-04-29T09:15:07;93227.59;;;15.32;44.97
12475;BME280;6302;42.624;23.334;2023-04-29T09:17:40;93228.75;;;15.31;44.50
12475;BME280;6302;42.624;23.334;2023-04-29T09:20:28;93232.72;;;15.39;43.88
12475;BME280;6302;42.624;23.334;2023-04-29T09:22:57;93234.91;;;15.15;43.42
12475;BME280;6302;42.624;23.334;2023-04-29T09:25:24;93229.44;;;15.19;44.61
12475;BME280;6302;42.624;23.334;2023-04-29T09:27:51;93227.22;;;15.17;44.55
12475;BME280;6302;42.624;23.334;2023-04-29T09:30:18;93230.44;;;15.25;46.24
12475;BME280;6302;42.624;23.334;2023-04-29T09:32:54;93226.56;;;15.42;44.80
12475;BME280;6302;42.624;23.334;2023-04-29T09:35:30;93227.22;;;15.46;46.14
12475;BME280;6302;42.624;23.334;2023-04-29T09:38:07;93213.47;;;15.47;42.48
12475;BME280;6302;42.624;23.334;2023-04-29T09:40:35;93211.69;;;15.41;42.20
12475;BME280;6302;42.624;23.334;2023-04-29T09:43:02;93218.59;;;15.54;42.39
12475;BME280;6302;42.624;23.334;2023-04-29T09:45:33;93211.78;;;15.66;43.05
12475;BME280;6302;42.624;23.334;2023-04-29T09:48:03;93201.09;;;15.66;41.82
12475;BME280;6302;42.624;23.334;2023-04-29T09:50:32;93201.88;;;15.79;41.75
12475;BME280;6302;42.624;23.334;2023-04-29T09:52:59;93197.16;;;15.83;42.27
12475;BME280;6302;42.624;23.334;2023-04-29T09:55:26;93204.03;;;16.09;42.91
12475;BME280;6302;42.624;23.334;2023-04-29T09:57:54;93195.03;;;16.16;41.40
12475;BME280;6302;42.624;23.334;2023-04-29T10:00:20;93195.66;;;16.07;41.96
12475;BME280;6302;42.624;23.334;2023-04-29T10:02:48;93198.16;;;16.14;41.71
12475;BME280;6302;42.624;23.334;2023-04-29T10:05:17;93191.81;;;16.34;41.46
12475;BME280;6302;42.624;23.334;2023-04-29T10:07:47;93175.75;;;16.34;42.31
12475;BME280;6302;42.624;23.334;2023-04-29T10:10:16;93186.53;;;16.43;42.29
12475;BME280;6302;42.624;23.334;2023-04-29T10:12:44;93185.16;;;16.51;42.45
12475;BME280;6302;42.624;23.334;2023-04-29T10:15:19;93181.09;;;16.59;41.79
12475;BME280;6302;42.624;23.334;2023-04-29T10:17:53;93179.53;;;16.83;42.17
12475;BME280;6302;42.624;23.334;2023-04-29T10:20:21;93172.28;;;17.05;41.20
12475;BME280;6302;42.624;23.334;2023-04-29T10:22:51;93167.97;;;17.29;41.24
12475;BME280;6302;42.624;23.334;2023-04-29T10:25:20;93163.41;;;17.39;38.97
12475;BME280;6302;42.624;23.334;2023-04-29T10:27:48;93172.47;;;17.32;40.08
12475;BME280;6302;42.624;23.334;2023-04-29T10:30:18;93160.75;;;17.39;37.27
12475;BME280;6302;42.624;23.334;2023-04-29T10:32:47;93165.78;;;17.59;38.99
12475;BME280;6302;42.624;23.334;2023-04-29T10:35:15;93170.59;;;17.42;40.27
12475;BME280;6302;42.624;23.334;2023-04-29T10:37:44;93165.59;;;17.31;38.10
12475;BME280;6302;42.624;23.334;2023-04-29T10:40:15;93152.97;;;17.32;37.63
12475;BME280;6302;42.624;23.334;2023-04-29T10:42:46;93167.41;;;17.56;38.38
12475;BME280;6302;42.624;23.334;2023-04-29T10:45:21;93159.09;;;17.11;36.78
12475;BME280;6302;42.624;23.334;2023-04-29T10:48:07;93161.41;;;16.87;38.57
12475;BME280;6302;42.624;23.334;2023-04-29T10:50:39;93164.50;;;16.98;38.90
12475;BME280;6302;42.624;23.334;2023-04-29T10:53:07;93160.06;;;17.04;38.64
12475;BME280;6302;42.624;23.334;2023-04-29T10:55:37;93160.75;;;17.17;37.58
12475;BME280;6302;42.624;23.334;2023-04-29T10:58:04;93158.38;;;17.19;37.92
12475;BME280;6302;42.624;23.334;2023-04-29T11:00:33;93159.69;;;16.93;38.52
12475;BME280;6302;42.624;23.334;2023-04-29T11:03:04;93154.34;;;16.93;39.03
12475;BME280;6302;42.624;23.334;2023-04-29T11:05:32;93154.66;;;17.17;39.19
12475;BME280;6302;42.624;23.334;2023-04-29T11:08:09;93148.69;;;17.13;39.29
12475;BME280;6302;42.624;23.334;2023-04-29T11:10:40;93157.31;;;16.95;37.13
12475;BME280;6302;42.624;23.334;2023-04-29T11:13:23;93152.53;;;16.90;38.36
12475;BME280;6302;42.624;23.334;2023-04-29T11:15:50;93153.53;;;17.05;37.52
12475;BME280;6302;42.624;23.334;2023-04-29T11:18:17;93156.75;;;17.00;37.86
12475;BME280;6302;42.624;23.334;2023-04-29T11:21:11;93150.16;;;16.92;37.07
12475;BME280;6302;42.624;23.334;2023-04-29T11:23:39;93148.03;;;16.87;35.95
12475;BME280;6302;42.624;23.334;2023-04-29T11:26:08;93152.41;;;16.94;38.33
12475;BME280;6302;42.624;23.334;2023-04-29T11:28:35;93158.75;;;16.87;36.89
12475;BME280;6302;42.624;23.334;2023-04-29T11:31:03;93141.66;;;16.72;37.75
12475;BME280;6302;42.624;23.334;2023-04-29T11:33:31;93152.81;;;16.70;38.01
12475;BME280;6302;42.624;23.334;2023-04-29T11:35:59;93144.78;;;16.70;37.97
12475;BME280;6302;42.624;23.334;2023-04-29T11:38:26;93151.44;;;16.66;38.74
12475;BME280;6302;42.624;23.334;2023-04-29T11:40:55;93139.91;;;16.56;37.43
12475;BME280;6302;42.624;23.334;2023-04-29T11:43:24;93138.09;;;16.41;37.08
12475;BME280;6302;42.624;23.334;2023-04-29T11:45:52;93134.91;;;16.20;37.97
12475;BME280;6302;42.624;23.334;2023-04-29T11:48:19;93133.75;;;16.21;38.92
12475;BME280;6302;42.624;23.334;2023-04-29T11:50:47;93138.56;;;16.26;39.14
12475;BME280;6302;42.624;23.334;2023-04-29T11:53:15;93144.75;;;16.23;39.05
12475;BME280;6302;42.624;23.334;2023-04-29T11:55:42;93135.88;;;16.26;39.36
12475;BME280;6302;42.624;23.334;2023-04-29T11:58:10;93133.84;;;16.31;37.59
12475;BME280;6302;42.624;23.334;2023-04-29T12:00:38;93142.84;;;16.24;38.85
12475;BME280;6302;42.624;23.334;2023-04-29T12:03:07;93139.13;;;16.09;39.46
12475;BME280;6302;42.624;23.334;2023-04-29T12:05:38;93136.13;;;15.94;39.33
12475;BME280;6302;42.624;23.334;2023-04-29T12:08:06;93131.53;;;15.95;39.13
12475;BME280;6302;42.624;23.334;2023-04-29T12:10:35;93137.94;;;15.97;38.92
12475;BME280;6302;42.624;23.334;2023-04-29T12:13:02;93136.84;;;16.07;39.49
12475;BME280;6302;42.624;23.334;2023-04-29T12:15:29;93141.34;;;16.10;39.47
12475;BME280;6302;42.624;23.334;2023-04-29T12:17:59;93136.13;;;15.94;38.89
12475;BME280;6302;42.624;23.334;2023-04-29T12:20:26;93140.94;;;15.87;40.35
12475;BME280;6302;42.624;23.334;2023-04-29T12:22:53;93128.00;;;15.85;40.71
12475;BME280;6302;42.624;23.334;2023-04-29T12:25:24;93131.94;;;15.68;42.28
12475;BME280;6302;42.624;23.334;2023-04-29T12:27:58;93129.28;;;15.68;43.35
12475;BME280;6302;42.624;23.334;2023-04-29T12:30:25;93122.34;;;15.83;43.47
12475;BME280;6302;42.624;23.334;2023-04-29T12:32:52;93118.28;;;15.91;43.87
12475;BME280;6302;42.624;23.334;2023-04-29T12:35:20;93118.28;;;15.91;44.56
12475;BME280;6302;42.624;23.334;2023-04-29T12:37:48;93121.16;;;15.97;44.40
12475;BME280;6302;42.624;23.334;2023-04-29T12:40:16;93109.06;;;16.05;43.85
12475;BME280;6302;42.624;23.334;2023-04-29T12:42:44;93118.25;;;16.16;45.48
12475;BME280;6302;42.624;23.334;2023-04-29T12:45:28;93121.22;;;16.31;45.66
12475;BME280;6302;42.624;23.334;2023-04-29T12:47:56;93118.41;;;16.35;46.90
12475;BME280;6302;42.624;23.334;2023-04-29T12:50:33;93120.69;;;16.36;47.75
12475;BME280;6302;42.624;23.334;2023-04-29T12:53:01;93121.53;;;16.33;47.10
12475;BME280;6302;42.624;23.334;2023-04-29T12:55:28;93117.59;;;16.25;47.33
12475;BME280;6302;42.624;23.334;2023-04-29T12:57:55;93114.25;;;16.34;47.67
12475;BME280;6302;42.624;23.334;2023-04-29T13:00:22;93111.59;;;16.34;48.96
12475;BME280;6302;42.624;23.334;2023-04-29T13:02:49;93116.69;;;16.41;48.77
12475;BME280;6302;42.624;23.334;2023-04-29T13:05:16;93108.75;;;16.50;49.10
12475;BME280;6302;42.624;23.334;2023-04-29T13:07:44;93107.81;;;16.44;49.89